sensor_id;sensor_type;location;lat;lon;timestamp;pressure;altitude;pressure_sealevel;temperature;humidity
3122;BME280;1571;52.524;14.104;2023-12-20T00:00:45;100455.28;;;5.94;100.00
3122;BME280;1571;52.524;14.104;2023-12-20T00:03:14;100458.19;;;6.07;100.00
3122;BME280;1571;52.524;14.104;2023-12-20T00:05:42;100459.25;;;6.03;100.00
3122;BME280;1571;52.524;14.104;2023-12-20T00:08:10;100457.13;;;5.92;100.00
3122;BME280;1571;52.524;14.104;2023-12-20T00:10:38;100451.72;;;5.95;100.00
3122;BME280;1571;52.524;14.104;2023-12-20T00:13:08;100451.19;;;5.87;100.00
3122;BME280;1571;52.524;14.104;2023-12-20T00:15:36;100456.00;;;5.98;100.00
3122;BME280;1571;52.524;14.104;2023-12-20T00:18:05;100455.16;;;5.97;100.00
3122;BME280;1571;52.524;14.104;2023-12-20T00:20:34;100457.63;;;6.00;100.00
3122;BME280;1571;52.524;14.104;2023-12-20T00:23:03;100450.97;;;5.92;100.00
3122;BME280;1571;52.524;14.104;2023-12-20T00:25:31;100446.00;;;6.04;100.00
3122;BME280;1571;52.524;14.104;2023-12-20T00:27:59;100445.00;;;6.07;100.00
3122;BME280;1571;52.524;14.104;2023-12-20T00:30:29;100450.00;;;5.94;100.00
3122;BME280;1571;52.524;14.104;2023-12-20T00:32:57;100446.47;;;5.95;100.00
3122;BME280;1571;52.524;14.104;2023-12-20T00:35:26;100440.97;;;6.00;100.00
3122;BME280;1571;52.524;14.104;2023-12-20T00:37:54;100445.41;;;5.99;100.00
3122;BME280;1571;52.524;14.104;2023-12-20T00:40:23;100443.00;;;6.12;100.00
3122;BME280;1571;52.524;14.104;2023-12-20T00:42:52;100442.03;;;5.96;100.00
3122;BME280;1571;52.524;14.104;2023-12-20T00:45:20;100436.41;;;6.03;100.00
3122;BME280;1571;52.524;14.104;2023-12-20T00:47:50;100428.81;;;5.97;100.00
3122;BME280;1571;52.524;14.104;2023-12-20T00:50:18;100428.03;;;5.95;100.00
3122;BME280;1571;52.524;14.104;2023-12-20T00:52:48;100425.88;;;6.03;100.00
3122;BME280;1571;52.524;14.104;2023-12-20T00:55:17;100428.63;;;6.00;100.00
3122;BME280;1571;52.524;14.104;2023-12-20T00:57:45;100429.25;;;6.05;100.00
3122;BME280;1571;52.524;14.104;2023-12-20T01:00:15;100434.84;;;5.99;100.00
3122;BME280;1571;52.524;14.104;2023-12-20T01:02:43;100419.81;;;6.01;100.00
3122;BME280;1571;52.524;14.104;2023-12-20T01:05:15;100429.69;;;6.15;100.00
3122;BME280;1571;52.524;14.104;2023-12-20T01:07:43;100435.19;;;6.11;100.00
3122;BME280;1571;52.524;14.104;2023-12-20T01:10:12;100426.41;;;6.10;100.00
3122;BME280;1571;52.524;14.104;2023-12-20T01:12:40;100412.91;;;5.99;100.00
3122;BME280;1571;52.524;14.104;2023-12-20T01:15:09;100427.22;;;5.93;100.00
3122;BME280;1571;52.524;14.104;2023-12-20T01:17:37;100426.50;;;6.09;100.00
3122;BME280;1571;52.524;14.104;2023-12-20T01:20:07;100423.75;;;6.10;100.00
3122;BME280;1571;52.524;14.104;2023-12-20T01:22:37;100430.38;;;6.01;100.00
3122;BME280;1571;52.524;14.104;2023-12-20T01:25:07;100429.06;;;5.91;100.00
3122;BME280;1571;52.524;14.104;2023-12-20T01:27:35;100429.41;;;6.02;100.00
3122;BME280;1571;52.524;14.104;2023-12-20T01:30:04;100423.09;;;6.07;100.00
3122;BME280;1571;52.524;14.104;2023-12-20T01:32:33;100419.66;;;6.04;100.00
3122;BME280;1571;52.524;14.104;2023-12-20T01:35:01;100416.25;;;6.02;100.00
3122;BME280;1571;52.524;14.104;2023-12-20T01:37:30;100412.91;;;5.99;100.00
3122;BME280;1571;52.524;14.104;2023-12-20T01:39:59;100403.22;;;5.99;100.00
3122;BME280;1571;52.524;14.104;2023-12-20T01:42:28;100396.19;;;6.00;100.00
3122;BME280;1571;52.524;14.104;2023-12-20T01:44:56;100412.16;;;6.14;100.00
3122;BME280;1571;52.524;14.104;2023-12-20T01:47:25;100407.56;;;6.00;100.00
3122;BME280;1571;52.524;14.104;2023-12-20T01:49:54;100401.38;;;6.01;100.00
3122;BME280;1571;52.524;14.104;2023-12-20T01:52:24;100392.75;;;5.98;100.00
3122;BME280;1571;52.524;14.104;2023-12-20T01:54:53;100397.88;;;6.01;100.00
3122;BME280;1571;52.524;14.104;2023-12-20T01:57:29;100396.91;;;6.03;100.00
3122;BME280;1571;52.524;14.104;2023-12-20T01:59:58;100396.91;;;6.03;100.00
3122;BME280;1571;52.524;14.104;2023-12-20T02:02:27;100389.34;;;5.96;100.00
3122;BME280;1571;52.524;14.104;2023-12-20T02:04:56;100389.13;;;6.00;100.00
3122;BME280;1571;52.524;14.104;2023-12-20T02:07:25;100390.75;;;6.03;100.00
3122;BME280;1571;52.524;14.104;2023-12-20T02:09:54;100397.09;;;5.99;100.00
3122;BME280;1571;52.524;14.104;2023-12-20T02:12:22;100401.06;;;6.08;100.00
3122;BME280;1571;52.524;14.104;2023-12-20T02:14:51;100385.34;;;6.06;100.00
3122;BME280;1571;52.524;14.104;2023-12-20T02:17:21;100393.47;;;6.01;100.00
3122;BME280;1571;52.524;14.104;2023-12-20T02:19:50;100389.72;;;6.05;100.00
3122;BME280;1571;52.524;14.104;2023-12-20T02:22:19;100390.69;;;6.04;100.00
3122;BME280;1571;52.524;14.104;2023-12-20T02:24:48;100389.53;;;5.91;100.00
3122;BME280;1571;52.524;14.104;2023-12-20T02:27:17;100393.75;;;5.95;100.00
3122;BME280;1571;52.524;14.104;2023-12-20T02:29:47;100393.25;;;6.06;100.00
3122;BME280;1571;52.524;14.104;2023-12-20T02:32:15;100394.53;;;5.97;100.00
3122;BME280;1571;52.524;14.104;2023-12-20T02:34:44;100395.00;;;6.05;100.00
3122;BME280;1571;52.524;14.104;2023-12-20T02:37:12;100394.03;;;5.89;100.00
3122;BME280;1571;52.524;14.104;2023-12-20T02:39:42;100388.13;;;5.84;100.00
3122;BME280;1571;52.524;14.104;2023-12-20T02:42:10;100391.31;;;5.91;100.00
3122;BME280;1571;52.524;14.104;2023-12-20T02:44:38;100401.00;;;5.90;100.00
3122;BME280;1571;52.524;14.104;2023-12-20T02:47:07;100410.00;;;5.86;100.00
3122;BME280;1571;52.524;14.104;2023-12-20T02:49:35;100406.50;;;5.86;100.00
3122;BME280;1571;52.524;14.104;2023-12-20T02:52:04;100404.00;;;5.82;100.00
3122;BME280;1571;52.524;14.104;2023-12-20T02:54:32;100405.50;;;5.88;100.00
3122;BME280;1571;52.524;14.104;2023-12-20T02:57:02;100395.59;;;5.93;100.00
3122;BME280;1571;52.524;14.104;2023-12-20T02:59:30;100413.13;;;5.94;100.00
3122;BME280;1571;52.524;14.104;2023-12-20T03:01:59;100416.09;;;5.87;100.00
3122;BME280;1571;52.524;14.104;2023-12-20T03:04:27;100423.66;;;5.94;100.00
3122;BME280;1571;52.524;14.104;2023-12-20T03:06:55;100423.09;;;6.07;100.00
3122;BME280;1571;52.524;14.104;2023-12-20T03:09:24;100425.78;;;6.05;100.00
3122;BME280;1571;52.524;14.104;2023-12-20T03:11:52;100424.94;;;6.04;100.00
3122;BME280;1571;52.524;14.104;2023-12-20T03:14:22;100418.09;;;6.00;100.00
3122;BME280;1571;52.524;14.104;2023-12-20T03:16:50;100412.53;;;6.07;100.00
3122;BME280;1571;52.524;14.104;2023-12-20T03:19:18;100416.09;;;6.05;100.00
3122;BME280;1571;52.524;14.104;2023-12-20T03:21:47;100416.03;;;6.07;100.00
3122;BME280;1571;52.524;14.104;2023-12-20T03:24:15;100414.41;;;6.04;100.00
3122;BME280;1571;52.524;14.104;2023-12-20T03:26:43;100426.28;;;6.13;100.00
3122;BME280;1571;52.524;14.104;2023-12-20T03:29:11;100415.34;;;6.03;100.00
3122;BME280;1571;52.524;14.104;2023-12-20T03:31:41;100417.03;;;6.04;100.00
3122;BME280;1571;52.524;14.104;2023-12-20T03:34:09;100414.41;;;6.04;100.00
3122;BME280;1571;52.524;14.104;2023-12-20T03:36:38;100414.41;;;6.04;100.00
3122;BME280;1571;52.524;14.104;2023-12-20T03:39:06;100417.19;;;6.01;100.00
3122;BME280;1571;52.524;14.104;2023-12-20T03:41:34;100424.47;;;6.14;100.00
3122;BME280;1571;52.524;14.104;2023-12-20T03:44:03;100417.81;;;6.07;100.00
3122;BME280;1571;52.524;14.104;2023-12-20T03:46:31;100423.47;;;6.16;100.00
3122;BME280;1571;52.524;14.104;2023-12-20T03:49:00;100420.94;;;6.15;100.00
3122;BME280;1571;52.524;14.104;2023-12-20T03:51:31;100424.66;;;6.11;100.00
3122;BME280;1571;52.524;14.104;2023-12-20T03:53:59;100424.16;;;6.02;100.00
3122;BME280;1571;52.524;14.104;2023-12-20T03:56:27;100419.69;;;6.22;100.00
3122;BME280;1571;52.524;14.104;2023-12-20T03:58:56;100414.41;;;6.04;100.00
3122;BME280;1571;52.524;14.104;2023-12-20T04:01:24;100422.00;;;6.11;100.00
3122;BME280;1571;52.524;14.104;2023-12-20T04:03:53;100413.22;;;6.10;100.00
3122;BME280;1571;52.524;14.104;2023-12-20T04:06:22;100414.22;;;6.08;100.00
3122;BME280;1571;52.524;14.104;2023-12-20T04:08:51;100406.66;;;6.01;100.00
3122;BME280;1571;52.524;14.104;2023-12-20T04:11:19;100397.31;;;5.94;100.00
3122;BME280;1571;52.524;14.104;2023-12-20T04:13:47;100387.91;;;5.89;100.00
3122;BME280;1571;52.524;14.104;2023-12-20T04:16:15;100394.75;;;5.93;100.00
3122;BME280;1571;52.524;14.104;2023-12-20T04:18:44;100394.69;;;5.94;100.00
3122;BME280;1571;52.524;14.104;2023-12-20T04:21:12;100383.06;;;5.98;100.00
3122;BME280;1571;52.524;14.104;2023-12-20T04:23:41;100399.16;;;5.92;100.00
3122;BME280;1571;52.524;14.104;2023-12-20T04:26:10;100402.31;;;5.81;100.00
3122;BME280;1571;52.524;14.104;2023-12-20T04:28:38;100398.50;;;5.87;100.00
3122;BME280;1571;52.524;14.104;2023-12-20T04:31:07;100395.63;;;5.74;100.00
3122;BME280;1571;52.524;14.104;2023-12-20T04:33:35;100386.38;;;5.66;100.00
3122;BME280;1571;52.524;14.104;2023-12-20T04:36:04;100392.00;;;5.58;100.00
3122;BME280;1571;52.524;14.104;2023-12-20T04:38:32;100396.13;;;5.63;100.00
3122;BME280;1571;52.524;14.104;2023-12-20T04:41:01;100383.69;;;5.48;100.00
3122;BME280;1571;52.524;14.104;2023-12-20T04:43:30;100382.19;;;5.42;100.00
3122;BME280;1571;52.524;14.104;2023-12-20T04:45:58;100383.75;;;5.47;100.00
3122;BME280;1571;52.524;14.104;2023-12-20T04:48:26;100384.97;;;5.58;100.00
3122;BME280;1571;52.524;14.104;2023-12-20T04:50:54;100387.50;;;5.60;100.00
3122;BME280;1571;52.524;14.104;2023-12-20T04:53:23;100373.00;;;5.51;100.00
3122;BME280;1571;52.524;14.104;2023-12-20T04:55:51;100372.38;;;5.46;100.00
3122;BME280;1571;52.524;14.104;2023-12-20T04:58:21;100364.06;;;5.36;100.00
3122;BME280;1571;52.524;14.104;2023-12-20T05:00:49;100363.28;;;5.34;100.00
3122;BME280;1571;52.524;14.104;2023-12-20T05:03:17;100365.06;;;5.34;100.00
3122;BME280;1571;52.524;14.104;2023-12-20T05:05:46;100364.91;;;5.37;100.00
3122;BME280;1571;52.524;14.104;2023-12-20T05:08:14;100373.31;;;5.26;100.00
3122;BME280;1571;52.524;14.104;2023-12-20T05:10:42;100368.72;;;5.11;100.00
3122;BME280;1571;52.524;14.104;2023-12-20T05:13:11;100369.09;;;5.03;100.00
3122;BME280;1571;52.524;14.104;2023-12-20T05:15:40;100361.84;;;5.08;100.00
3122;BME280;1571;52.524;14.104;2023-12-20T05:18:08;100374.72;;;5.14;100.00
3122;BME280;1571;52.524;14.104;2023-12-20T05:20:37;100370.75;;;5.25;100.00
3122;BME280;1571;52.524;14.104;2023-12-20T05:23:05;100351.41;;;5.26;100.00
3122;BME280;1571;52.524;14.104;2023-12-20T05:25:33;100361.91;;;5.26;100.00
3122;BME280;1571;52.524;14.104;2023-12-20T05:28:02;100360.63;;;5.15;100.00
3122;BME280;1571;52.524;14.104;2023-12-20T05:30:30;100354.72;;;5.10;100.00
3122;BME280;1571;52.524;14.104;2023-12-20T05:33:00;100355.94;;;5.03;100.00
3122;BME280;1571;52.524;14.104;2023-12-20T05:35:28;100343.94;;;5.16;100.00
3122;BME280;1571;52.524;14.104;2023-12-20T05:37:57;100337.31;;;5.27;100.00
3122;BME280;1571;52.524;14.104;2023-12-20T05:40:25;100342.72;;;5.24;100.00
3122;BME280;1571;52.524;14.104;2023-12-20T05:42:53;100343.50;;;5.26;100.00
3122;BME280;1571;52.524;14.104;2023-12-20T05:45:22;100355.38;;;5.34;100.00
3122;BME280;1571;52.524;14.104;2023-12-20T05:47:50;100357.09;;;5.16;100.00
3122;BME280;1571;52.524;14.104;2023-12-20T05:50:19;100352.88;;;5.31;100.00
3122;BME280;1571;52.524;14.104;2023-12-20T05:52:48;100349.41;;;5.31;100.00
3122;BME280;1571;52.524;14.104;2023-12-20T05:55:17;100349.41;;;5.31;100.00
3122;BME280;1571;52.524;14.104;2023-12-20T05:57:46;100342.56;;;5.27;100.00
3122;BME280;1571;52.524;14.104;2023-12-20T06:00:15;100338.81;;;5.32;100.00
3122;BME280;1571;52.524;14.104;2023-12-20T06:02:44;100340.44;;;5.35;100.00
3122;BME280;1571;52.524;14.104;2023-12-20T06:05:12;100322.94;;;5.34;100.00
3122;BME280;1571;52.524;14.104;2023-12-20T06:07:42;100322.00;;;5.35;100.00
3122;BME280;1571;52.524;14.104;2023-12-20T06:10:12;100324.13;;;5.27;100.00
3122;BME280;1571;52.524;14.104;2023-12-20T06:12:41;100325.34;;;5.19;100.00
3122;BME280;1571;52.524;14.104;2023-12-20T06:15:09;100320.75;;;5.25;100.00
3122;BME280;1571;52.524;14.104;2023-12-20T06:17:38;100312.25;;;5.37;100.00
3122;BME280;1571;52.524;14.104;2023-12-20T06:20:07;100302.69;;;5.36;100.00
3122;BME280;1571;52.524;14.104;2023-12-20T06:22:36;100302.63;;;5.18;100.00
3122;BME280;1571;52.524;14.104;2023-12-20T06:25:06;100298.91;;;5.22;100.00
3122;BME280;1571;52.524;14.104;2023-12-20T06:27:35;100311.84;;;5.08;100.00
3122;BME280;1571;52.524;14.104;2023-12-20T06:30:04;100301.59;;;5.02;100.00
3122;BME280;1571;52.524;14.104;2023-12-20T06:32:33;100296.34;;;5.02;100.00
3122;BME280;1571;52.524;14.104;2023-12-20T06:35:01;100286.25;;;4.93;100.00
3122;BME280;1571;52.524;14.104;2023-12-20T06:37:32;100293.06;;;4.97;100.00
3122;BME280;1571;52.524;14.104;2023-12-20T06:40:00;100294.78;;;4.98;100.00
3122;BME280;1571;52.524;14.104;2023-12-20T06:42:30;100295.91;;;4.92;100.00
3122;BME280;1571;52.524;14.104;2023-12-20T06:45:10;100299.91;;;5.01;100.00
3122;BME280;1571;52.524;14.104;2023-12-20T06:47:38;100295.22;;;4.89;100.00
3122;BME280;1571;52.524;14.104;2023-12-20T06:50:07;100290.81;;;4.89;100.00
3122;BME280;1571;52.524;14.104;2023-12-20T06:52:35;100295.84;;;4.94;100.00
3122;BME280;1571;52.524;14.104;2023-12-20T06:55:05;100299.59;;;4.88;100.00
3122;BME280;1571;52.524;14.104;2023-12-20T06:57:34;100307.28;;;4.93;100.00
3122;BME280;1571;52.524;14.104;2023-12-20T07:00:04;100299.19;;;4.78;100.00
3122;BME280;1571;52.524;14.104;2023-12-20T07:02:32;100296.75;;;4.93;100.00
3122;BME280;1571;52.524;14.104;2023-12-20T07:05:01;100305.09;;;5.03;100.00
3122;BME280;1571;52.524;14.104;2023-12-20T07:07:29;100304.44;;;4.78;100.00
3122;BME280;1571;52.524;14.104;2023-12-20T07:09:58;100308.38;;;4.89;100.00
3122;BME280;1571;52.524;14.104;2023-12-20T07:12:26;100303.25;;;4.86;100.00
3122;BME280;1571;52.524;14.104;2023-12-20T07:14:56;100301.59;;;4.83;100.00
3122;BME280;1571;52.524;14.104;2023-12-20T07:17:25;100305.44;;;4.95;100.00
3122;BME280;1571;52.524;14.104;2023-12-20T07:19:53;100303.03;;;4.90;100.00
3122;BME280;1571;52.524;14.104;2023-12-20T07:22:21;100305.75;;;4.89;100.00
3122;BME280;1571;52.524;14.104;2023-12-20T07:24:50;100299.91;;;5.01;100.00
3122;BME280;1571;52.524;14.104;2023-12-20T07:27:19;100301.13;;;4.94;100.00
3122;BME280;1571;52.524;14.104;2023-12-20T07:29:47;100290.09;;;4.86;100.00
3122;BME280;1571;52.524;14.104;2023-12-20T07:32:17;100293.09;;;4.78;100.00
3122;BME280;1571;52.524;14.104;2023-12-20T07:34:45;100290.25;;;4.83;100.00
3122;BME280;1571;52.524;14.104;2023-12-20T07:37:14;100286.97;;;4.77;100.00
3122;BME280;1571;52.524;14.104;2023-12-20T07:39:43;100285.97;;;4.80;100.00
3122;BME280;1571;52.524;14.104;2023-12-20T07:42:11;100283.56;;;4.94;100.00
3122;BME280;1571;52.524;14.104;2023-12-20T07:44:40;100285.91;;;5.00;100.00
3122;BME280;1571;52.524;14.104;2023-12-20T07:47:08;100287.53;;;5.03;100.00
3122;BME280;1571;52.524;14.104;2023-12-20T07:49:38;100287.53;;;5.03;100.00
3122;BME280;1571;52.524;14.104;2023-12-20T07:52:06;100284.84;;;5.05;100.00
3122;BME280;1571;52.524;14.104;2023-12-20T07:54:35;100287.25;;;5.09;100.00
3122;BME280;1571;52.524;14.104;2023-12-20T07:57:04;100295.94;;;5.11;100.00
3122;BME280;1571;52.524;14.104;2023-12-20T07:59:32;100298.78;;;5.07;100.00
3122;BME280;1571;52.524;14.104;2023-12-20T08:02:00;100281.56;;;4.99;100.00
3122;BME280;1571;52.524;14.104;2023-12-20T08:04:29;100280.00;;;4.95;100.00
3122;BME280;1571;52.524;14.104;2023-12-20T08:06:59;100281.00;;;5.12;100.00
3122;BME280;1571;52.524;14.104;2023-12-20T08:09:27;100278.69;;;5.04;100.00
3122;BME280;1571;52.524;14.104;2023-12-20T08:11:56;100269.63;;;5.11;100.00
3122;BME280;1571;52.524;14.104;2023-12-20T08:14:26;100276.34;;;5.17;100.00
3122;BME280;1571;52.524;14.104;2023-12-20T08:16:54;100270.31;;;5.15;100.00
3122;BME280;1571;52.524;14.104;2023-12-20T08:19:23;100267.41;;;5.21;100.00
3122;BME280;1571;52.524;14.104;2023-12-20T08:21:51;100271.16;;;5.15;100.00
3122;BME280;1571;52.524;14.104;2023-12-20T08:24:21;100270.03;;;5.21;100.00
3122;BME280;1571;52.524;14.104;2023-12-20T08:26:49;100260.94;;;5.09;100.00
3122;BME280;1571;52.524;14.104;2023-12-20T08:29:18;100260.28;;;5.23;100.00
3122;BME280;1571;52.524;14.104;2023-12-20T08:31:45;100251.44;;;5.24;100.00
3122;BME280;1571;52.524;14.104;2023-12-20T08:34:14;100257.09;;;5.16;100.00
3122;BME280;1571;52.524;14.104;2023-12-20T08:36:42;100253.06;;;5.09;100.00
3122;BME280;1571;52.524;14.104;2023-12-20T08:39:11;100253.19;;;5.06;100.00
3122;BME280;1571;52.524;14.104;2023-12-20T08:41:41;100256.03;;;5.20;100.00
3122;BME280;1571;52.524;14.104;2023-12-20T08:44:09;100253.06;;;5.27;100.00
3122;BME280;1571;52.524;14.104;2023-12-20T08:46:37;100250.66;;;5.22;100.00
3122;BME280;1571;52.524;14.104;2023-12-20T08:49:06;100237.00;;;5.33;100.00
3122;BME280;1571;52.524;14.104;2023-12-20T08:51:34;100239.63;;;5.33;100.00
3122;BME280;1571;52.524;14.104;2023-12-20T08:54:03;100234.75;;;5.25;100.00
3122;BME280;1571;52.524;14.104;2023-12-20T08:56:34;100223.72;;;5.36;100.00
3122;BME280;1571;52.524;14.104;2023-12-20T08:59:04;100229.88;;;5.35;100.00
3122;BME280;1571;52.524;14.104;2023-12-20T09:01:32;100233.91;;;5.25;100.00
3122;BME280;1571;52.524;14.104;2023-12-20T09:04:01;100230.16;;;5.29;100.00
3122;BME280;1571;52.524;14.104;2023-12-20T09:06:30;100230.03;;;5.32;100.00
3122;BME280;1571;52.524;14.104;2023-12-20T09:08:58;100229.41;;;5.44;100.00
3122;BME280;1571;52.524;14.104;2023-12-20T09:11:26;100223.56;;;5.56;100.00
3122;BME280;1571;52.524;14.104;2023-12-20T09:13:55;100218.13;;;5.59;100.00
3122;BME280;1571;52.524;14.104;2023-12-20T09:16:24;100207.44;;;5.62;100.00
3122;BME280;1571;52.524;14.104;2023-12-20T09:18:53;100195.16;;;5.63;100.00
3122;BME280;1571;52.524;14.104;2023-12-20T09:21:21;100206.97;;;5.72;100.00
3122;BME280;1571;52.524;14.104;2023-12-20T09:23:49;100204.88;;;5.78;100.00
3122;BME280;1571;52.524;14.104;2023-12-20T09:26:18;100206.28;;;5.68;100.00
3122;BME280;1571;52.524;14.104;2023-12-20T09:28:46;100192.75;;;5.58;100.00
3122;BME280;1571;52.524;14.104;2023-12-20T09:31:15;100193.19;;;5.67;100.00
3122;BME280;1571;52.524;14.104;2023-12-20T09:33:45;100186.25;;;5.66;100.00
3122;BME280;1571;52.524;14.104;2023-12-20T09:36:14;100183.91;;;5.77;100.00
3122;BME280;1571;52.524;14.104;2023-12-20T09:38:42;100180.38;;;5.94;100.00
3122;BME280;1571;52.524;14.104;2023-12-20T09:41:13;100180.16;;;5.98;100.00
3122;BME280;1571;52.524;14.104;2023-12-20T09:43:41;100179.72;;;5.90;100.00
3122;BME280;1571;52.524;14.104;2023-12-20T09:46:11;100167.00;;;5.98;100.00
3122;BME280;1571;52.524;14.104;2023-12-20T09:48:41;100164.69;;;5.92;100.00
3122;BME280;1571;52.524;14.104;2023-12-20T09:51:12;100160.50;;;5.88;100.00
3122;BME280;1571;52.524;14.104;2023-12-20T09:53:41;100158.63;;;5.90;100.00
3122;BME280;1571;52.524;14.104;2023-12-20T09:56:11;100159.09;;;5.98;100.00
3122;BME280;1571;52.524;14.104;2023-12-20T09:58:40;100148.72;;;5.95;100.00
3122;BME280;1571;52.524;14.104;2023-12-20T10:01:08;100150.81;;;6.06;100.00
3122;BME280;1571;52.524;14.104;2023-12-20T10:03:39;100149.94;;;6.05;100.00
3122;BME280;1571;52.524;14.104;2023-12-20T10:06:11;100142.38;;;5.99;100.00
3122;BME280;1571;52.524;14.104;2023-12-20T10:08:40;100137.88;;;5.84;100.00
3122;BME280;1571;52.524;14.104;2023-12-20T10:11:08;100139.41;;;5.88;100.00
3122;BME280;1571;52.524;14.104;2023-12-20T10:13:39;100136.78;;;5.88;100.00
3122;BME280;1571;52.524;14.104;2023-12-20T10:16:08;100122.38;;;5.78;100.00
3122;BME280;1571;52.524;14.104;2023-12-20T10:18:36;100126.38;;;5.85;100.00
3122;BME280;1571;52.524;14.104;2023-12-20T10:21:06;100132.97;;;5.94;100.00
3122;BME280;1571;52.524;14.104;2023-12-20T10:23:38;100127.00;;;5.90;100.00
3122;BME280;1571;52.524;14.104;2023-12-20T10:26:08;100129.19;;;5.99;100.00
3122;BME280;1571;52.524;14.104;2023-12-20T10:28:37;100119.25;;;6.04;100.00
3122;BME280;1571;52.524;14.104;2023-12-20T10:31:05;100118.72;;;5.98;100.00
3122;BME280;1571;52.524;14.104;2023-12-20T10:33:33;100107.16;;;6.00;100.00
3122;BME280;1571;52.524;14.104;2023-12-20T10:36:03;100103.50;;;6.03;100.00
3122;BME280;1571;52.524;14.104;2023-12-20T10:38:31;100104.81;;;6.12;100.00
3122;BME280;1571;52.524;14.104;2023-12-20T10:41:01;100102.84;;;5.99;100.00
3122;BME280;1571;52.524;14.104;2023-12-20T10:43:32;100098.19;;;6.20;100.00
3122;BME280;1571;52.524;14.104;2023-12-20T10:46:03;100098.25;;;6.03;100.00
3122;BME280;1571;52.524;14.104;2023-12-20T10:48:32;100103.63;;;6.01;100.00
3122;BME280;1571;52.524;14.104;2023-12-20T10:51:01;100106.66;;;6.10;100.00
3122;BME280;1571;52.524;14.104;2023-12-20T10:53:29;100088.06;;;5.97;100.00
3122;BME280;1571;52.524;14.104;2023-12-20T10:56:01;100088.50;;;5.88;100.00
3122;BME280;1571;52.524;14.104;2023-12-20T10:58:32;100095.09;;;5.96;100.00
3122;BME280;1571;52.524;14.104;2023-12-20T11:01:01;100088.72;;;6.00;100.00
3122;BME280;1571;52.524;14.104;2023-12-20T11:03:35;100080.69;;;6.03;100.00
3122;BME280;1571;52.524;14.104;2023-12-20T11:06:09;100073.63;;;5.87;100.00
3122;BME280;1571;52.524;14.104;2023-12-20T11:08:46;100079.38;;;5.95;100.00
3122;BME280;1571;52.524;14.104;2023-12-20T11:11:21;100063.78;;;5.90;100.00
3122;BME280;1571;52.524;14.104;2023-12-20T11:13:58;100059.91;;;5.97;100.00
3122;BME280;1571;52.524;14.104;2023-12-20T11:16:27;100059.28;;;5.92;100.00
3122;BME280;1571;52.524;14.104;2023-12-20T11:19:07;100051.75;;;6.02;100.00
3122;BME280;1571;52.524;14.104;2023-12-20T11:21:36;100050.56;;;6.08;100.00
3122;BME280;1571;52.524;14.104;2023-12-20T11:24:05;100042.72;;;5.90;100.00
3122;BME280;1571;52.524;14.104;2023-12-20T11:26:35;100044.09;;;5.97;100.00
3122;BME280;1571;52.524;14.104;2023-12-20T11:29:33;100033.31;;;6.18;100.00
3122;BME280;1571;52.524;14.104;2023-12-20T11:32:03;100039.44;;;6.18;100.00
3122;BME280;1571;52.524;14.104;2023-12-20T11:34:33;100029.47;;;6.23;100.00
3122;BME280;1571;52.524;14.104;2023-12-20T11:37:04;100028.97;;;6.17;100.00
3122;BME280;1571;52.524;14.104;2023-12-20T11:39:32;100013.00;;;6.20;100.00
3122;BME280;1571;52.524;14.104;2023-12-20T11:42:05;100023.03;;;6.13;100.00
3122;BME280;1571;52.524;14.104;2023-12-20T11:44:36;100011.91;;;6.24;100.00
3122;BME280;1571;52.524;14.104;2023-12-20T11:47:04;99997.34;;;6.33;100.00
3122;BME280;1571;52.524;14.104;2023-12-20T11:49:33;99995.13;;;6.25;100.00
3122;BME280;1571;52.524;14.104;2023-12-20T11:52:01;99988.84;;;6.28;100.00
3122;BME280;1571;52.524;14.104;2023-12-20T11:54:30;99975.25;;;6.19;100.00
3122;BME280;1571;52.524;14.104;2023-12-20T11:56:58;99965.13;;;6.28;100.00
3122;BME280;1571;52.524;14.104;2023-12-20T11:59:28;99967.25;;;6.21;100.00
3122;BME280;1571;52.524;14.104;2023-12-20T12:01:56;99964.72;;;6.19;100.00
3122;BME280;1571;52.524;14.104;2023-12-20T12:04:28;99956.38;;;6.11;100.00
3122;BME280;1571;52.524;14.104;2023-12-20T12:06:57;99950.28;;;6.11;100.00
3122;BME280;1571;52.524;14.104;2023-12-20T12:09:25;99956.91;;;6.02;100.00
3122;BME280;1571;52.524;14.104;2023-12-20T12:11:54;99938.72;;;5.97;100.00
3122;BME280;1571;52.524;14.104;2023-12-20T12:14:22;99927.84;;;6.03;100.00
3122;BME280;1571;52.524;14.104;2023-12-20T12:16:52;99925.38;;;6.00;100.00
3122;BME280;1571;52.524;14.104;2023-12-20T12:19:21;99924.81;;;5.94;100.00
3122;BME280;1571;52.524;14.104;2023-12-20T12:21:49;99921.44;;;5.92;100.00
3122;BME280;1571;52.524;14.104;2023-12-20T12:24:20;99916.25;;;5.90;100.00
3122;BME280;1571;52.524;14.104;2023-12-20T12:26:50;99917.78;;;5.94;100.00
3122;BME280;1571;52.524;14.104;2023-12-20T12:29:18;99912.00;;;5.88;100.00
3122;BME280;1571;52.524;14.104;2023-12-20T12:31:47;99902.75;;;5.96;100.00
3122;BME280;1571;52.524;14.104;2023-12-20T12:34:16;99905.38;;;5.96;100.00
3122;BME280;1571;52.524;14.104;2023-12-20T12:36:45;99904.72;;;6.09;100.00
3122;BME280;1571;52.524;14.104;2023-12-20T12:39:17;99882.09;;;6.04;100.00
3122;BME280;1571;52.524;14.104;2023-12-20T12:41:46;99875.81;;;6.07;100.00
3122;BME280;1571;52.524;14.104;2023-12-20T12:44:14;99872.84;;;5.97;100.00
3122;BME280;1571;52.524;14.104;2023-12-20T12:46:44;99867.25;;;6.03;100.00
3122;BME280;1571;52.524;14.104;2023-12-20T12:49:13;99870.22;;;5.97;100.00
3122;BME280;1571;52.524;14.104;2023-12-20T12:51:43;99867.38;;;5.84;100.00
3122;BME280;1571;52.524;14.104;2023-12-20T12:54:12;99851.16;;;5.92;100.00
3122;BME280;1571;52.524;14.104;2023-12-20T12:56:43;99853.38;;;5.84;100.00
3122;BME280;1571;52.524;14.104;2023-12-20T12:59:12;99862.03;;;5.86;100.00
3122;BME280;1571;52.524;14.104;2023-12-20T13:01:40;99850.81;;;5.98;100.00
3122;BME280;1571;52.524;14.104;2023-12-20T13:04:09;99851.00;;;5.95;100.00
3122;BME280;1571;52.524;14.104;2023-12-20T13:06:39;99852.53;;;5.83;100.00
3122;BME280;1571;52.524;14.104;2023-12-20T13:09:09;99847.59;;;5.77;100.00
3122;BME280;1571;52.524;14.104;2023-12-20T13:11:38;99842.41;;;5.76;100.00